createdAt,value
2018-08-24T00:00:03.659Z,20.90
2018-08-24T00:02:32.172Z,20.90
2018-08-24T00:05:00.720Z,20.90
2018-08-24T00:07:29.350Z,20.80
2018-08-24T00:09:57.818Z,20.90
2018-08-24T00:12:26.451Z,20.90
2018-08-24T00:14:54.959Z,20.90
2018-08-24T00:17:28.853Z,20.80
2018-08-24T00:19:57.367Z,20.90
2018-08-24T00:22:25.903Z,20.90
2018-08-24T00:24:54.429Z,20.90
2018-08-24T00:27:23.354Z,20.90
2018-08-24T00:29:51.862Z,20.90
2018-08-24T00:32:20.495Z,20.90
2018-08-24T00:34:49.045Z,20.90
2018-08-24T00:37:17.746Z,20.80
2018-08-24T00:39:46.269Z,20.80
2018-08-24T00:42:14.818Z,20.80
2018-08-24T00:44:43.524Z,20.80
2018-08-24T00:47:12.002Z,20.80
2018-08-24T00:49:40.587Z,20.80
2018-08-24T00:52:09.227Z,20.70
2018-08-24T00:54:37.808Z,20.70
2018-08-24T00:57:06.511Z,20.60
2018-08-24T00:59:35.092Z,20.60
2018-08-24T01:02:03.726Z,20.60
2018-08-24T01:04:35.469Z,20.60
2018-08-24T01:07:11.465Z,20.70
2018-08-24T01:09:40.717Z,20.70
2018-08-24T01:12:10.104Z,20.70
2018-08-24T01:14:39.616Z,20.70
2018-08-24T01:17:13.615Z,20.80
2018-08-24T01:19:42.632Z,20.80
2018-08-24T01:22:11.225Z,20.70
2018-08-24T01:24:39.754Z,20.70
2018-08-24T01:27:08.998Z,20.70
2018-08-24T01:29:38.951Z,20.70
2018-08-24T01:32:07.820Z,20.70
2018-08-24T01:34:37.312Z,20.60
2018-08-24T01:37:05.863Z,20.60
2018-08-24T01:39:34.468Z,20.60
2018-08-24T01:42:02.956Z,20.60
2018-08-24T01:44:31.475Z,20.60
2018-08-24T01:47:00.035Z,20.60
2018-08-24T01:49:28.610Z,20.60
2018-08-24T01:51:57.097Z,20.60
2018-08-24T01:54:26.646Z,20.60
2018-08-24T01:56:56.285Z,20.70
2018-08-24T01:59:25.146Z,20.70
2018-08-24T02:01:53.581Z,20.80
2018-08-24T02:04:22.081Z,20.70
2018-08-24T02:06:50.533Z,20.80
2018-08-24T02:09:21.781Z,20.80
2018-08-24T02:11:50.615Z,20.80
2018-08-24T02:14:24.644Z,20.80
2018-08-24T02:16:53.103Z,20.80
2018-08-24T02:19:26.830Z,20.70
2018-08-24T02:22:00.670Z,20.70
2018-08-24T02:24:29.187Z,20.70
2018-08-24T02:26:57.669Z,20.60
2018-08-24T02:29:26.192Z,20.60
2018-08-24T02:31:54.650Z,20.60
2018-08-24T02:34:23.225Z,20.60
2018-08-24T02:36:51.692Z,20.60
2018-08-24T02:39:20.311Z,20.60
2018-08-24T02:41:48.890Z,20.50
2018-08-24T02:44:17.375Z,20.40
2018-08-24T02:46:46.499Z,20.30
2018-08-24T02:49:15.014Z,20.20
2018-08-24T02:51:43.523Z,20.10
2018-08-24T02:54:11.975Z,20.00
2018-08-24T02:56:40.451Z,19.90
2018-08-24T02:59:08.977Z,19.90
2018-08-24T03:01:37.480Z,19.80
2018-08-24T03:04:06.001Z,19.70
2018-08-24T03:06:34.484Z,19.60
2018-08-24T03:09:03.071Z,19.60
2018-08-24T03:11:31.576Z,19.50
2018-08-24T03:14:00.011Z,19.50
2018-08-24T03:16:28.661Z,19.40
2018-08-24T03:18:57.001Z,19.40
2018-08-24T03:21:25.504Z,19.30
2018-08-24T03:23:53.984Z,19.30
2018-08-24T03:26:22.490Z,19.20
2018-08-24T03:28:50.951Z,19.20
2018-08-24T03:31:19.452Z,19.20
2018-08-24T03:33:48.126Z,19.10
2018-08-24T03:36:16.618Z,19.10
2018-08-24T03:38:45.133Z,19.20
2018-08-24T03:41:13.628Z,19.20
2018-08-24T03:43:42.176Z,19.20
2018-08-24T03:46:10.698Z,19.20
2018-08-24T03:48:39.206Z,19.20
2018-08-24T03:51:07.882Z,19.20
2018-08-24T03:53:36.343Z,19.20
2018-08-24T03:56:04.869Z,19.10
2018-08-24T03:58:33.438Z,19.20
2018-08-24T04:01:01.936Z,19.10
2018-08-24T04:03:30.546Z,19.00
2018-08-24T04:05:59.105Z,19.00
2018-08-24T04:08:27.583Z,18.90
2018-08-24T04:10:56.246Z,18.90
2018-08-24T04:13:24.750Z,18.90
2018-08-24T04:15:53.197Z,18.90
2018-08-24T04:18:21.741Z,18.90
2018-08-24T04:20:50.244Z,18.90
2018-08-24T04:23:18.752Z,18.90
2018-08-24T04:25:47.216Z,18.90
2018-08-24T04:28:15.697Z,18.90
2018-08-24T04:30:44.240Z,18.90
2018-08-24T04:33:12.739Z,18.80
2018-08-24T04:35:41.269Z,18.80
2018-08-24T04:38:09.838Z,18.80
2018-08-24T04:40:38.376Z,18.70
2018-08-24T04:43:07.065Z,18.70
2018-08-24T04:45:35.623Z,18.60
2018-08-24T04:48:04.056Z,18.60
2018-08-24T04:50:32.547Z,18.50
2018-08-24T04:53:01.039Z,18.40
2018-08-24T04:55:29.583Z,18.40
2018-08-24T04:57:58.090Z,18.30
2018-08-24T05:00:26.621Z,18.30
2018-08-24T05:02:55.135Z,18.30
2018-08-24T05:05:23.633Z,18.30
2018-08-24T05:07:52.159Z,18.30
2018-08-24T05:10:20.751Z,18.30
2018-08-24T05:12:49.255Z,18.20
2018-08-24T05:15:17.712Z,18.10
2018-08-24T05:17:46.294Z,18.10
2018-08-24T05:20:14.772Z,18.00
2018-08-24T05:22:43.321Z,18.00
2018-08-24T05:25:11.783Z,18.00
2018-08-24T05:27:40.308Z,18.00
2018-08-24T05:30:08.816Z,18.00
2018-08-24T05:32:37.356Z,18.00
2018-08-24T05:35:06.114Z,18.00
2018-08-24T05:37:34.611Z,18.00
2018-08-24T05:40:03.071Z,18.10
2018-08-24T05:42:31.985Z,18.10
2018-08-24T05:45:00.481Z,18.10
2018-08-24T05:47:29.027Z,18.10
2018-08-24T05:49:57.795Z,18.20
2018-08-24T05:52:26.349Z,18.20
2018-08-24T05:54:54.867Z,18.30
2018-08-24T05:57:23.690Z,18.30
2018-08-24T05:59:52.623Z,18.40
2018-08-24T06:02:21.583Z,18.40
2018-08-24T06:04:50.046Z,18.50
2018-08-24T06:07:18.929Z,18.60
2018-08-24T06:09:47.507Z,18.60
2018-08-24T06:12:16.051Z,18.60
2018-08-24T06:14:44.658Z,18.70
2018-08-24T06:17:18.418Z,18.80
2018-08-24T06:19:46.866Z,18.80
2018-08-24T06:22:15.367Z,18.90
2018-08-24T06:24:43.876Z,18.90
2018-08-24T06:27:12.331Z,19.00
2018-08-24T06:29:40.860Z,19.00
2018-08-24T06:32:09.345Z,19.00
2018-08-24T06:34:37.945Z,19.10
2018-08-24T06:37:06.492Z,19.20
2018-08-24T06:39:34.944Z,19.20
2018-08-24T06:42:03.534Z,19.30
2018-08-24T06:44:31.963Z,19.30
2018-08-24T06:47:00.483Z,19.30
2018-08-24T06:49:28.989Z,19.30
2018-08-24T06:51:57.492Z,19.30
2018-08-24T06:54:26.117Z,19.30
2018-08-24T06:56:55.104Z,19.30
2018-08-24T06:59:23.696Z,19.30
2018-08-24T07:01:52.208Z,19.20
2018-08-24T07:04:20.758Z,19.10
2018-08-24T07:06:49.218Z,19.10
2018-08-24T07:09:17.715Z,19.10
2018-08-24T07:11:46.323Z,19.10
2018-08-24T07:14:14.864Z,19.00
2018-08-24T07:16:43.395Z,19.00
2018-08-24T07:19:11.914Z,19.00
2018-08-24T07:21:40.481Z,19.00
2018-08-24T07:24:08.988Z,19.10
2018-08-24T07:26:37.647Z,19.10
2018-08-24T07:29:06.303Z,19.20
2018-08-24T07:31:34.880Z,19.30
2018-08-24T07:34:03.902Z,19.40
2018-08-24T07:36:32.376Z,19.40
2018-08-24T07:39:00.895Z,19.40
2018-08-24T07:41:29.402Z,19.40
2018-08-24T07:43:57.931Z,19.40
2018-08-24T07:46:27.323Z,19.40
2018-08-24T07:48:55.823Z,19.40
2018-08-24T07:51:24.277Z,19.30
2018-08-24T07:53:52.917Z,19.40
2018-08-24T07:56:21.448Z,19.50
2018-08-24T07:58:50.016Z,19.60
2018-08-24T08:01:18.599Z,19.60
2018-08-24T08:03:47.240Z,19.70
2018-08-24T08:06:15.754Z,19.80
2018-08-24T08:08:44.336Z,19.90
2018-08-24T08:11:12.846Z,20.00
2018-08-24T08:13:41.363Z,20.00
2018-08-24T08:16:09.847Z,20.10
2018-08-24T08:18:38.470Z,20.10
2018-08-24T08:21:07.357Z,20.20
2018-08-24T08:23:35.890Z,20.20
2018-08-24T08:26:04.342Z,20.30
2018-08-24T08:28:32.847Z,20.30
2018-08-24T08:31:01.342Z,20.30
2018-08-24T08:33:29.863Z,20.40
2018-08-24T08:35:58.402Z,20.40
2018-08-24T08:38:26.947Z,20.40
2018-08-24T08:40:55.420Z,20.50
2018-08-24T08:43:23.999Z,20.50
2018-08-24T08:45:52.723Z,20.60
2018-08-24T08:48:21.239Z,20.70
2018-08-24T08:50:49.797Z,20.70
2018-08-24T08:53:18.412Z,20.70
2018-08-24T08:55:46.906Z,20.60
2018-08-24T08:58:15.438Z,20.60
2018-08-24T09:00:43.936Z,20.60
2018-08-24T09:03:12.427Z,20.60
2018-08-24T09:05:40.924Z,20.60
2018-08-24T09:08:09.380Z,20.50
2018-08-24T09:10:37.890Z,20.50
2018-08-24T09:13:06.416Z,20.50
2018-08-24T09:15:34.904Z,20.50
2018-08-24T09:18:08.773Z,20.50
2018-08-24T09:20:42.487Z,20.50
2018-08-24T09:23:16.519Z,20.50
2018-08-24T09:25:50.547Z,20.50
2018-08-24T09:28:24.246Z,20.50
2018-08-24T09:30:57.286Z,20.50
2018-08-24T09:33:25.817Z,20.60
2018-08-24T09:35:54.266Z,20.50
2018-08-24T09:38:22.758Z,20.30
2018-08-24T09:40:56.581Z,20.20
2018-08-24T09:43:30.399Z,20.10
2018-08-24T09:45:58.962Z,19.80
2018-08-24T09:48:29.191Z,19.60
2018-08-24T09:51:02.970Z,19.40
2018-08-24T09:53:36.606Z,19.30
2018-08-24T09:56:05.139Z,19.20
2018-08-24T09:58:33.635Z,19.00
2018-08-24T10:01:07.383Z,19.00
2018-08-24T10:03:41.283Z,19.00
2018-08-24T10:06:15.170Z,19.00
2018-08-24T10:08:49.800Z,19.00
2018-08-24T10:11:18.411Z,19.10
2018-08-24T10:13:46.965Z,19.20
2018-08-24T10:16:16.679Z,19.40
2018-08-24T10:18:45.231Z,19.50
2018-08-24T10:21:13.770Z,19.80
2018-08-24T10:23:42.259Z,20.00
2018-08-24T10:26:10.738Z,20.20
2018-08-24T10:28:39.269Z,20.30
2018-08-24T10:31:07.809Z,20.30
2018-08-24T10:33:36.327Z,20.30
2018-08-24T10:36:04.906Z,20.40
2018-08-24T10:38:33.437Z,20.30
2018-08-24T10:41:01.987Z,20.40
2018-08-24T10:43:30.455Z,20.30
2018-08-24T10:45:58.998Z,20.40
2018-08-24T10:48:27.497Z,20.30
2018-08-24T10:50:56.013Z,20.30
2018-08-24T10:53:24.521Z,20.40
2018-08-24T10:55:53.038Z,20.50
2018-08-24T10:58:21.501Z,20.80
2018-08-24T11:00:50.011Z,21.10
2018-08-24T11:03:18.475Z,21.40
2018-08-24T11:05:46.943Z,21.70
2018-08-24T11:08:15.401Z,21.80
2018-08-24T11:10:43.955Z,21.80
2018-08-24T11:13:12.390Z,21.70
2018-08-24T11:15:40.964Z,21.50
2018-08-24T11:18:10.799Z,21.50
2018-08-24T11:20:40.727Z,21.60
2018-08-24T11:23:09.414Z,21.60
2018-08-24T11:25:38.144Z,21.70
2018-08-24T11:28:06.700Z,21.90
2018-08-24T11:30:35.228Z,21.90
2018-08-24T11:33:03.732Z,21.90
2018-08-24T11:35:32.298Z,21.80
2018-08-24T11:38:00.785Z,21.70
2018-08-24T11:40:29.300Z,21.50
2018-08-24T11:42:57.827Z,21.40
2018-08-24T11:45:26.377Z,21.30
2018-08-24T11:47:55.010Z,21.20
2018-08-24T11:50:23.452Z,21.20
2018-08-24T11:52:51.929Z,21.10
2018-08-24T11:55:20.440Z,21.10
2018-08-24T11:57:49.011Z,21.30
2018-08-24T12:00:17.517Z,21.70
2018-08-24T12:02:46.218Z,22.00
2018-08-24T12:05:14.730Z,22.30
2018-08-24T12:07:43.228Z,22.50
2018-08-24T12:10:12.919Z,22.40
2018-08-24T12:12:41.420Z,22.20
2018-08-24T12:15:10.325Z,22.10
2018-08-24T12:17:39.057Z,22.20
2018-08-24T12:20:08.169Z,22.20
2018-08-24T12:22:36.605Z,22.10
2018-08-24T12:25:05.204Z,21.90
2018-08-24T12:27:33.692Z,21.90
2018-08-24T12:30:02.242Z,22.00
2018-08-24T12:32:30.732Z,22.10
2018-08-24T12:34:59.223Z,22.20
2018-08-24T12:37:27.711Z,22.40
2018-08-24T12:39:56.254Z,22.50
2018-08-24T12:42:24.908Z,22.60
2018-08-24T12:44:53.427Z,22.80
2018-08-24T12:47:21.917Z,22.80
2018-08-24T12:49:50.807Z,22.90
2018-08-24T12:52:19.328Z,22.90
2018-08-24T12:54:47.815Z,23.00
2018-08-24T12:57:16.459Z,23.00
2018-08-24T12:59:44.933Z,23.10
2018-08-24T13:02:13.502Z,23.20
2018-08-24T13:04:41.998Z,23.30
2018-08-24T13:07:10.500Z,23.40
2018-08-24T13:09:38.971Z,23.40
2018-08-24T13:12:07.532Z,23.30
2018-08-24T13:14:36.068Z,23.40
2018-08-24T13:17:04.581Z,23.40
2018-08-24T13:19:33.044Z,23.30
2018-08-24T13:22:01.541Z,22.90
2018-08-24T13:24:30.041Z,22.50
2018-08-24T13:26:58.575Z,22.10
2018-08-24T13:29:27.032Z,21.90
2018-08-24T13:31:55.583Z,21.80
2018-08-24T13:34:24.460Z,21.60
2018-08-24T13:36:53.133Z,21.40
2018-08-24T13:39:21.619Z,21.20
2018-08-24T13:41:50.194Z,21.10
2018-08-24T13:44:18.716Z,21.10
2018-08-24T13:46:47.193Z,21.00
2018-08-24T13:49:15.693Z,21.00
2018-08-24T13:51:44.145Z,21.00
2018-08-24T13:54:12.719Z,21.00
2018-08-24T13:56:41.211Z,21.00
2018-08-24T13:59:09.780Z,21.00
2018-08-24T14:01:38.285Z,21.00
2018-08-24T14:04:06.892Z,21.10
2018-08-24T14:06:35.339Z,21.10
2018-08-24T14:09:06.240Z,21.20
2018-08-24T14:11:34.745Z,21.30
2018-08-24T14:14:03.268Z,21.30
2018-08-24T14:16:31.752Z,21.30
2018-08-24T14:19:00.238Z,21.30
2018-08-24T14:21:28.713Z,21.20
2018-08-24T14:23:57.241Z,21.00
2018-08-24T14:26:25.768Z,20.80
2018-08-24T14:28:54.268Z,20.50
2018-08-24T14:31:22.764Z,20.40
2018-08-24T14:33:51.266Z,20.20
2018-08-24T14:36:19.744Z,20.10
2018-08-24T14:38:48.236Z,20.10
2018-08-24T14:41:16.711Z,20.00
2018-08-24T14:43:45.258Z,19.90
2018-08-24T14:46:13.733Z,19.90
2018-08-24T14:48:42.268Z,19.90
2018-08-24T14:51:10.809Z,19.90
2018-08-24T14:53:39.372Z,20.00
2018-08-24T14:56:07.879Z,20.10
2018-08-24T14:58:36.396Z,20.10
2018-08-24T15:01:04.955Z,20.20
2018-08-24T15:03:33.445Z,20.20
2018-08-24T15:06:01.944Z,20.30
2018-08-24T15:08:30.432Z,20.40
2018-08-24T15:10:58.949Z,20.50
2018-08-24T15:13:27.631Z,20.70
2018-08-24T15:15:56.153Z,20.80
2018-08-24T15:18:24.629Z,20.80
2018-08-24T15:20:53.084Z,20.80
2018-08-24T15:23:21.571Z,20.70
2018-08-24T15:25:50.038Z,20.60
2018-08-24T15:28:18.528Z,20.60
2018-08-24T15:30:46.989Z,20.60
2018-08-24T15:33:15.498Z,20.60
2018-08-24T15:35:43.960Z,20.50
2018-08-24T15:38:12.479Z,20.40
2018-08-24T15:40:40.964Z,20.40
2018-08-24T15:43:09.425Z,20.40
2018-08-24T15:45:37.958Z,20.40
2018-08-24T15:48:06.459Z,20.40
2018-08-24T15:50:34.953Z,20.30
2018-08-24T15:53:03.438Z,20.30
2018-08-24T15:55:31.935Z,20.20
2018-08-24T15:58:00.409Z,20.10
2018-08-24T16:00:28.906Z,20.10
2018-08-24T16:02:57.391Z,20.10
2018-08-24T16:05:25.867Z,20.10
2018-08-24T16:07:54.412Z,20.10
2018-08-24T16:10:22.886Z,20.10
2018-08-24T16:12:51.470Z,20.00
2018-08-24T16:15:19.964Z,20.10
2018-08-24T16:17:53.895Z,20.00
2018-08-24T16:20:22.353Z,20.10
2018-08-24T16:22:50.917Z,20.10
2018-08-24T16:25:19.516Z,20.00
2018-08-24T16:27:47.983Z,20.00
2018-08-24T16:30:16.578Z,20.00
2018-08-24T16:32:45.403Z,20.10
2018-08-24T16:35:13.870Z,20.00
2018-08-24T16:37:42.372Z,20.00
2018-08-24T16:40:10.837Z,20.00
2018-08-24T16:42:39.376Z,19.90
2018-08-24T16:45:07.945Z,19.90
2018-08-24T16:47:36.419Z,19.90
2018-08-24T16:50:04.902Z,19.90
2018-08-24T16:52:33.433Z,19.90
2018-08-24T16:55:01.934Z,19.90
2018-08-24T16:57:30.513Z,19.90
2018-08-24T16:59:59.026Z,19.80
2018-08-24T17:02:27.507Z,19.70
2018-08-24T17:04:56.016Z,19.60
2018-08-24T17:07:24.516Z,19.60
2018-08-24T17:09:53.030Z,19.50
2018-08-24T17:12:21.506Z,19.40
2018-08-24T17:14:50.060Z,19.30
2018-08-24T17:17:18.543Z,19.30
2018-08-24T17:19:47.050Z,19.20
2018-08-24T17:22:15.556Z,19.10
2018-08-24T17:24:44.130Z,19.00
2018-08-24T17:27:12.594Z,18.90
2018-08-24T17:29:41.090Z,18.90
2018-08-24T17:32:09.648Z,18.90
2018-08-24T17:34:38.183Z,18.80
2018-08-24T17:37:06.728Z,18.80
2018-08-24T17:39:35.200Z,18.80
2018-08-24T17:42:03.744Z,18.70
2018-08-24T17:44:32.213Z,18.70
2018-08-24T17:47:00.934Z,18.70
2018-08-24T17:49:29.452Z,18.60
2018-08-24T17:51:58.024Z,18.60
2018-08-24T17:54:26.527Z,18.50
2018-08-24T17:56:55.086Z,18.50
2018-08-24T17:59:23.563Z,18.50
2018-08-24T18:01:52.148Z,18.40
2018-08-24T18:04:20.684Z,18.30
2018-08-24T18:06:49.183Z,18.20
2018-08-24T18:09:17.634Z,18.20
2018-08-24T18:11:46.267Z,18.10
2018-08-24T18:14:14.747Z,18.00
2018-08-24T18:16:43.352Z,18.00
2018-08-24T18:19:11.868Z,17.90
2018-08-24T18:21:40.348Z,17.80
2018-08-24T18:24:08.823Z,17.70
2018-08-24T18:26:37.400Z,17.60
2018-08-24T18:29:05.915Z,17.50
2018-08-24T18:31:34.417Z,17.50
2018-08-24T18:34:03.089Z,17.50
2018-08-24T18:36:31.639Z,17.50
2018-08-24T18:39:00.728Z,17.40
2018-08-24T18:41:29.246Z,17.40
2018-08-24T18:43:57.789Z,17.30
2018-08-24T18:46:26.300Z,17.40
2018-08-24T18:48:54.796Z,17.30
2018-08-24T18:51:23.312Z,17.30
2018-08-24T18:53:51.833Z,17.30
2018-08-24T18:56:20.430Z,17.30
2018-08-24T18:58:48.949Z,17.30
2018-08-24T19:01:17.464Z,17.30
2018-08-24T19:03:45.994Z,17.20
2018-08-24T19:06:14.472Z,17.30
2018-08-24T19:08:42.995Z,17.20
2018-08-24T19:11:16.862Z,17.20
2018-08-24T19:13:45.385Z,17.20
2018-08-24T19:16:13.897Z,17.20
2018-08-24T19:18:47.678Z,17.30
2018-08-24T19:21:21.623Z,17.30
2018-08-24T19:23:50.112Z,17.30
2018-08-24T19:26:18.619Z,17.30
2018-08-24T19:28:52.519Z,17.20
2018-08-24T19:31:21.005Z,17.00
2018-08-24T19:33:49.574Z,16.90
2018-08-24T19:36:18.180Z,16.80
2018-08-24T19:38:46.667Z,16.70
2018-08-24T19:41:20.468Z,16.50
2018-08-24T19:43:49.065Z,16.50
2018-08-24T19:46:17.596Z,16.40
2018-08-24T19:48:51.421Z,16.40
2018-08-24T19:51:19.939Z,16.40
2018-08-24T19:53:48.489Z,16.30
2018-08-24T19:56:18.342Z,16.30
2018-08-24T19:59:05.996Z,16.20
2018-08-24T20:01:35.268Z,16.20
2018-08-24T20:04:04.748Z,16.20
2018-08-24T20:06:38.576Z,16.10
2018-08-24T20:09:15.144Z,16.00
2018-08-24T20:11:46.928Z,15.90
2018-08-24T20:14:15.939Z,15.90
2018-08-24T20:16:49.652Z,15.90
2018-08-24T20:19:18.114Z,15.90
2018-08-24T20:21:46.657Z,15.90
2018-08-24T20:24:15.190Z,15.80
2018-08-24T20:26:43.638Z,15.80
2018-08-24T20:29:12.146Z,15.80
2018-08-24T20:31:40.618Z,15.80
2018-08-24T20:34:09.059Z,15.70
2018-08-24T20:36:37.584Z,15.80
2018-08-24T20:39:08.077Z,15.70
2018-08-24T20:41:36.662Z,15.70
2018-08-24T20:44:05.185Z,15.70
2018-08-24T20:46:33.711Z,15.70
2018-08-24T20:49:02.213Z,15.70
2018-08-24T20:51:30.749Z,15.70
2018-08-24T20:53:59.298Z,15.60
2018-08-24T20:56:27.870Z,15.60
2018-08-24T20:58:56.428Z,15.50
2018-08-24T21:01:25.007Z,15.50
2018-08-24T21:03:53.564Z,15.40
2018-08-24T21:06:22.237Z,15.30
2018-08-24T21:08:50.730Z,15.30
2018-08-24T21:11:19.210Z,15.30
2018-08-24T21:13:47.669Z,15.30
2018-08-24T21:16:16.273Z,15.30
2018-08-24T21:18:44.794Z,15.20
2018-08-24T21:21:13.316Z,15.20
2018-08-24T21:23:41.847Z,15.20
2018-08-24T21:26:10.290Z,15.20
2018-08-24T21:28:38.772Z,15.20
2018-08-24T21:31:07.247Z,15.20
2018-08-24T21:33:35.747Z,15.20
2018-08-24T21:36:04.227Z,15.20
2018-08-24T21:38:32.717Z,15.20
2018-08-24T21:41:01.243Z,15.20
2018-08-24T21:43:29.710Z,15.20
2018-08-24T21:45:58.254Z,15.20
2018-08-24T21:48:26.720Z,15.20
2018-08-24T21:50:55.182Z,15.20
2018-08-24T21:53:23.699Z,15.10
2018-08-24T21:55:52.207Z,15.10
2018-08-24T21:58:20.780Z,15.00
2018-08-24T22:00:49.252Z,14.90
2018-08-24T22:03:17.764Z,14.80
2018-08-24T22:05:46.218Z,14.70
2018-08-24T22:08:14.752Z,14.60
2018-08-24T22:10:43.215Z,14.60
2018-08-24T22:13:11.730Z,14.50
2018-08-24T22:15:40.193Z,14.40
2018-08-24T22:18:08.656Z,14.40
2018-08-24T22:20:37.169Z,14.30
2018-08-24T22:23:05.709Z,14.30
2018-08-24T22:25:34.285Z,14.20
2018-08-24T22:28:02.778Z,14.10
2018-08-24T22:30:31.356Z,14.10
2018-08-24T22:32:59.894Z,14.00
2018-08-24T22:35:28.430Z,14.00
2018-08-24T22:37:56.958Z,14.00
2018-08-24T22:40:25.672Z,14.00
2018-08-24T22:42:54.333Z,13.90
2018-08-24T22:45:23.892Z,13.90
2018-08-24T22:47:53.370Z,13.90
2018-08-24T22:50:22.000Z,13.90
2018-08-24T22:52:50.704Z,13.90
2018-08-24T22:55:19.255Z,13.90
2018-08-24T22:57:47.809Z,13.90
2018-08-24T23:00:16.505Z,13.90
2018-08-24T23:02:45.061Z,13.90
2018-08-24T23:05:13.631Z,13.90
2018-08-24T23:07:42.235Z,13.90
2018-08-24T23:10:10.715Z,13.90
2018-08-24T23:12:39.339Z,13.90
2018-08-24T23:15:07.823Z,14.00
2018-08-24T23:17:36.848Z,13.90
2018-08-24T23:20:05.533Z,13.90
2018-08-24T23:22:34.180Z,13.90
2018-08-24T23:25:02.683Z,13.90
2018-08-24T23:27:31.300Z,13.90
2018-08-24T23:29:59.879Z,13.90
2018-08-24T23:32:28.976Z,13.90
2018-08-24T23:34:57.881Z,13.90
2018-08-24T23:37:26.506Z,13.90
2018-08-24T23:39:55.104Z,13.90
2018-08-24T23:42:24.256Z,13.90
2018-08-24T23:44:52.778Z,13.90
2018-08-24T23:47:21.274Z,13.90
2018-08-24T23:49:49.731Z,13.90
2018-08-24T23:52:18.247Z,13.90
2018-08-24T23:54:46.791Z,13.80
2018-08-24T23:57:15.292Z,13.80
2018-08-24T23:59:43.858Z,13.80
